Time;durP1;ratioP1;P1;durP2;ratioP2;P2;SDS_P1;SDS_P2;PMS_P1;PMS_P2;Temp;Humidity;BMP_temperature;BMP_pressure;BME280_temperature;BME280_humidity;BME280_pressure;Samples;Min_cycle;Max_cycle;Signal;HPM_P1;HPM_P2
2022/09/26 00:01:05;;;;;;;0.10;0.10;;;;;;;;;;5068222;28;20307;-76
2022/09/26 00:03:31;;;;;;;0.10;0.10;;;;;;;;;;5050970;28;20510;-75
2022/09/26 00:05:59;;;;;;;0.00;0.00;;;;;;;;;;5047248;28;20244;-75
2022/09/26 00:08:26;;;;;;;0.10;0.10;;;;;;;;;;5060320;28;20225;-76
2022/09/26 00:10:57;;;;;;;0.00;0.00;;;;;;;;;;5045844;28;20244;-76
2022/09/26 00:13:23;;;;;;;0.10;0.10;;;;;;;;;;5061004;28;20211;-76
2022/09/26 00:15:50;;;;;;;0.10;0.10;;;;;;;;;;5045041;28;20232;-76
2022/09/26 00:18:16;;;;;;;0.10;0.10;;;;;;;;;;5051705;28;20221;-76
2022/09/26 00:20:43;;;;;;;0.10;0.10;;;;;;;;;;5042502;28;20247;-76
2022/09/26 00:23:09;;;;;;;0.10;0.10;;;;;;;;;;5064830;28;20227;-76
2022/09/26 00:25:35;;;;;;;0.10;0.10;;;;;;;;;;5039033;28;20434;-75
2022/09/26 00:28:03;;;;;;;0.10;0.10;;;;;;;;;;5066327;28;20212;-76
2022/09/26 00:30:29;;;;;;;0.10;0.10;;;;;;;;;;5038973;28;20337;-75
2022/09/26 00:32:56;;;;;;;0.10;0.10;;;;;;;;;;5068008;28;20210;-76
2022/09/26 00:35:22;;;;;;;0.10;0.10;;;;;;;;;;5036883;28;20205;-76
2022/09/26 00:37:48;;;;;;;0.07;0.07;;;;;;;;;;5070158;28;20210;-76
2022/09/26 00:40:15;;;;;;;0.10;0.10;;;;;;;;;;5034628;28;20210;-74
2022/09/26 00:42:41;;;;;;;0.10;0.10;;;;;;;;;;5071656;28;20252;-75
2022/09/26 00:45:10;;;;;;;0.10;0.10;;;;;;;;;;5032873;28;20213;-76
2022/09/26 00:47:39;;;;;;;0.10;0.10;;;;;;;;;;5073552;28;20411;-76
2022/09/26 00:50:09;;;;;;;0.10;0.10;;;;;;;;;;5042594;28;20394;-75
2022/09/26 00:52:38;;;;;;;0.10;0.10;;;;;;;;;;5031292;28;20210;-76
2022/09/26 00:55:06;;;;;;;0.10;0.10;;;;;;;;;;5041480;28;20546;-75
2022/09/26 00:57:35;;;;;;;0.10;0.10;;;;;;;;;;5073819;28;20222;-75
2022/09/26 01:00:08;;;;;;;0.10;0.10;;;;;;;;;;5042539;28;20205;-76
2022/09/26 01:02:36;;;;;;;0.10;0.10;;;;;;;;;;5031084;28;20264;-76
2022/09/26 01:05:04;;;;;;;0.10;0.10;;;;;;;;;;5042319;28;20240;-76
2022/09/26 01:07:31;;;;;;;0.10;0.10;;;;;;;;;;5063931;28;20234;-75
2022/09/26 01:09:57;;;;;;;0.10;0.10;;;;;;;;;;5042094;28;20206;-76
2022/09/26 01:12:24;;;;;;;0.10;0.10;;;;;;;;;;5064232;28;20396;-76
2022/09/26 01:14:51;;;;;;;0.10;0.10;;;;;;;;;;5042313;28;20384;-76
2022/09/26 01:17:18;;;;;;;0.10;0.10;;;;;;;;;;5064169;28;20299;-76
2022/09/26 01:19:50;;;;;;;0.10;0.10;;;;;;;;;;5042200;28;20529;-76
2022/09/26 01:22:31;;;;;;;0.10;0.10;;;;;;;;;;5064188;28;20241;-75
2022/09/26 01:25:07;;;;;;;0.10;0.10;;;;;;;;;;5044834;28;20196;-76
2022/09/26 01:27:42;;;;;;;0.10;0.10;;;;;;;;;;5033217;28;20224;-76
2022/09/26 01:30:11;;;;;;;0.10;0.10;;;;;;;;;;5036911;28;20193;-75
2022/09/26 01:32:57;;;;;;;0.10;0.10;;;;;;;;;;5076422;28;20214;-75
2022/09/26 01:35:33;;;;;;;0.10;0.10;;;;;;;;;;5041161;28;20211;-76
2022/09/26 01:38:04;;;;;;;0.10;0.10;;;;;;;;;;5057135;28;20228;-75
2022/09/26 01:40:33;;;;;;;0.10;0.10;;;;;;;;;;5042713;28;20239;-75
2022/09/26 01:43:05;;;;;;;0.10;0.10;;;;;;;;;;5070250;28;20212;-76
2022/09/26 01:45:38;;;;;;;0.10;0.10;;;;;;;;;;5042800;28;20239;-76
2022/09/26 01:48:05;;;;;;;0.10;0.10;;;;;;;;;;5069105;28;20426;-75
2022/09/26 01:50:37;;;;;;;0.10;0.10;;;;;;;;;;5070414;28;20381;-76
2022/09/26 01:53:05;;;;;;;0.10;0.10;;;;;;;;;;5056995;28;20239;-77
2022/09/26 01:55:35;;;;;;;0.10;0.10;;;;;;;;;;5042399;28;20287;-76
2022/09/26 01:58:05;;;;;;;0.10;0.10;;;;;;;;;;5069386;28;20312;-76
2022/09/26 02:00:32;;;;;;;0.10;0.10;;;;;;;;;;5039381;28;20205;-74
2022/09/26 02:03:03;;;;;;;0.10;0.10;;;;;;;;;;5073050;28;20212;-76
2022/09/26 02:05:32;;;;;;;0.10;0.10;;;;;;;;;;5041868;28;20241;-76
2022/09/26 02:08:00;;;;;;;0.10;0.10;;;;;;;;;;5070074;28;20233;-76
2022/09/26 02:10:28;;;;;;;0.10;0.10;;;;;;;;;;5041121;28;20240;-76
2022/09/26 02:12:57;;;;;;;0.10;0.10;;;;;;;;;;5071176;28;20205;-76
2022/09/26 02:15:26;;;;;;;0.10;0.10;;;;;;;;;;5071975;28;20561;-75
2022/09/26 02:17:55;;;;;;;0.10;0.10;;;;;;;;;;5071921;28;20421;-76
2022/09/26 02:20:26;;;;;;;0.10;0.10;;;;;;;;;;5039344;28;20205;-75
2022/09/26 02:22:53;;;;;;;0.10;0.10;;;;;;;;;;5071675;28;20234;-75
2022/09/26 02:25:19;;;;;;;0.10;0.10;;;;;;;;;;5038815;28;20207;-75
2022/09/26 02:27:46;;;;;;;0.10;0.10;;;;;;;;;;5058374;28;20221;-76
2022/09/26 02:30:13;;;;;;;0.10;0.10;;;;;;;;;;5036891;28;20293;-75
2022/09/26 02:32:39;;;;;;;0.00;0.00;;;;;;;;;;5074919;28;20219;-75
2022/09/26 02:35:52;;;;;;;0.10;0.10;;;;;;;;;;5041869;28;20205;-75
2022/09/26 02:38:02;;;;;;;0.10;0.10;;;;;;;;;;5045196;28;20472;-76
2022/09/26 02:40:32;;;;;;;0.10;0.10;;;;;;;;;;5040724;28;20355;-74
2022/09/26 02:43:05;;;;;;;0.10;0.10;;;;;;;;;;5069492;28;20245;-76
2022/09/26 02:45:35;;;;;;;0.10;0.10;;;;;;;;;;5041691;28;20235;-75
2022/09/26 02:48:16;;;;;;;0.10;0.10;;;;;;;;;;5068354;28;20265;-76
2022/09/26 02:50:53;;;;;;;0.10;0.10;;;;;;;;;;5027686;28;20244;-76
2022/09/26 02:53:32;;;;;;;0.10;0.10;;;;;;;;;;5063813;28;20250;-73
2022/09/26 02:56:02;;;;;;;0.10;0.10;;;;;;;;;;5048630;28;20240;-73
2022/09/26 02:58:35;;;;;;;0.10;0.10;;;;;;;;;;5061419;28;20242;-72
2022/09/26 03:01:04;;;;;;;0.10;0.10;;;;;;;;;;5048796;28;20240;-73
2022/09/26 03:03:33;;;;;;;0.10;0.10;;;;;;;;;;5060986;28;20217;-73
2022/09/26 03:06:00;;;;;;;0.10;0.10;;;;;;;;;;5048355;28;20274;-73
2022/09/26 03:08:29;;;;;;;0.10;0.10;;;;;;;;;;5061575;28;20288;-73
2022/09/26 03:10:57;;;;;;;0.10;0.10;;;;;;;;;;5047399;28;20282;-73
2022/09/26 03:13:24;;;;;;;0.10;0.10;;;;;;;;;;5062687;28;20267;-73
2022/09/26 03:15:51;;;;;;;0.10;0.10;;;;;;;;;;5046039;28;20529;-73
2022/09/26 03:18:19;;;;;;;0.10;0.10;;;;;;;;;;5063883;28;20222;-72
2022/09/26 03:20:46;;;;;;;0.10;0.10;;;;;;;;;;5044555;28;20534;-72
2022/09/26 03:23:12;;;;;;;0.10;0.10;;;;;;;;;;5065138;28;20215;-73
2022/09/26 03:25:40;;;;;;;0.10;0.10;;;;;;;;;;5042756;28;20239;-73
2022/09/26 03:28:06;;;;;;;0.10;0.10;;;;;;;;;;5066653;28;20226;-73
2022/09/26 03:30:33;;;;;;;0.10;0.10;;;;;;;;;;5041182;28;20278;-73
2022/09/26 03:33:02;;;;;;;0.10;0.10;;;;;;;;;;5068420;28;20525;-73
2022/09/26 03:35:29;;;;;;;0.10;0.10;;;;;;;;;;5039544;28;20323;-73
2022/09/26 03:37:55;;;;;;;0.10;0.10;;;;;;;;;;5069189;28;20284;-73
2022/09/26 03:40:21;;;;;;;0.10;0.10;;;;;;;;;;5038350;28;20227;-73
2022/09/26 03:42:49;;;;;;;0.00;0.00;;;;;;;;;;5071081;28;20241;-73
2022/09/26 03:45:16;;;;;;;0.10;0.10;;;;;;;;;;5036747;28;20212;-72
2022/09/26 03:47:42;;;;;;;0.10;0.10;;;;;;;;;;5071762;28;20226;-74
2022/09/26 03:50:09;;;;;;;0.10;0.10;;;;;;;;;;5034699;28;20204;-73
2022/09/26 03:52:36;;;;;;;0.10;0.10;;;;;;;;;;5073996;28;20351;-73
2022/09/26 03:55:02;;;;;;;0.10;0.10;;;;;;;;;;5043174;28;20205;-73
2022/09/26 03:57:28;;;;;;;0.10;0.10;;;;;;;;;;5064917;28;20281;-73
2022/09/26 03:59:56;;;;;;;0.10;0.10;;;;;;;;;;5043093;28;20206;-73
2022/09/26 04:02:22;;;;;;;0.10;0.10;;;;;;;;;;5065099;28;20246;-73
2022/09/26 04:04:49;;;;;;;0.10;0.10;;;;;;;;;;5042489;28;20224;-73
2022/09/26 04:07:15;;;;;;;0.10;0.10;;;;;;;;;;5064616;28;20249;-73
2022/09/26 04:09:41;;;;;;;0.10;0.10;;;;;;;;;;5043243;28;20205;-72
2022/09/26 04:12:07;;;;;;;0.10;0.10;;;;;;;;;;5064955;28;20240;-74
2022/09/26 04:14:34;;;;;;;0.10;0.10;;;;;;;;;;5043056;28;20209;-74
2022/09/26 04:17:02;;;;;;;0.10;0.10;;;;;;;;;;5063574;28;20243;-73
2022/09/26 04:19:28;;;;;;;0.10;0.10;;;;;;;;;;5043856;28;20232;-73
2022/09/26 04:21:54;;;;;;;0.10;0.10;;;;;;;;;;5061766;28;20577;-72
2022/09/26 04:24:21;;;;;;;0.10;0.10;;;;;;;;;;5045951;28;20283;-73
2022/09/26 04:26:47;;;;;;;0.00;0.00;;;;;;;;;;5059535;28;20245;-74
2022/09/26 04:29:14;;;;;;;0.10;0.10;;;;;;;;;;5047522;28;20213;-73
2022/09/26 04:31:43;;;;;;;0.10;0.10;;;;;;;;;;5057647;28;20259;-73
2022/09/26 04:34:11;;;;;;;0.10;0.10;;;;;;;;;;5048589;28;20492;-73
2022/09/26 04:36:38;;;;;;;0.10;0.10;;;;;;;;;;5056940;28;20239;-73
2022/09/26 04:39:04;;;;;;;0.10;0.10;;;;;;;;;;5049909;28;20201;-72
2022/09/26 04:41:31;;;;;;;0.10;0.10;;;;;;;;;;5055450;28;20240;-73
2022/09/26 04:43:58;;;;;;;0.10;0.10;;;;;;;;;;5051622;28;20423;-73
2022/09/26 04:46:26;;;;;;;0.10;0.10;;;;;;;;;;5053918;28;20632;-73
2022/09/26 04:48:53;;;;;;;0.10;0.10;;;;;;;;;;5052630;28;20227;-74
2022/09/26 04:51:21;;;;;;;0.10;0.10;;;;;;;;;;5052230;28;20234;-73
2022/09/26 04:53:49;;;;;;;0.10;0.10;;;;;;;;;;5053830;28;20209;-73
2022/09/26 04:56:16;;;;;;;0.10;0.10;;;;;;;;;;5051171;28;20303;-73
2022/09/26 04:58:42;;;;;;;0.10;0.10;;;;;;;;;;5054222;28;20225;-74
2022/09/26 05:01:09;;;;;;;0.10;0.10;;;;;;;;;;5049134;28;20247;-73
2022/09/26 05:03:36;;;;;;;0.10;0.10;;;;;;;;;;5057017;28;20211;-72
2022/09/26 05:06:06;;;;;;;0.10;0.10;;;;;;;;;;5041556;28;20244;-74
2022/09/26 05:08:36;;;;;;;0.10;0.10;;;;;;;;;;5058646;28;20225;-73
2022/09/26 05:11:02;;;;;;;0.10;0.10;;;;;;;;;;5047420;28;20302;-73
2022/09/26 05:13:29;;;;;;;0.00;0.00;;;;;;;;;;5058610;28;20205;-72
2022/09/26 05:15:58;;;;;;;0.10;0.10;;;;;;;;;;5045385;28;20243;-73
2022/09/26 05:18:25;;;;;;;0.10;0.10;;;;;;;;;;5059879;28;20202;-73
2022/09/26 05:20:51;;;;;;;0.10;0.10;;;;;;;;;;5043801;28;20268;-72
2022/09/26 05:26:20;;;;;;;0.10;0.10;;;;;;;;;;5045282;28;20234;-73
2022/09/26 05:28:47;;;;;;;0.10;0.10;;;;;;;;;;5056394;28;20232;-72
2022/09/26 05:31:14;;;;;;;0.10;0.10;;;;;;;;;;5049735;28;20251;-72
2022/09/26 05:33:41;;;;;;;0.10;0.10;;;;;;;;;;5055945;28;20257;-73
2022/09/26 05:36:08;;;;;;;0.10;0.10;;;;;;;;;;5048468;28;20350;-73
2022/09/26 05:38:34;;;;;;;0.10;0.10;;;;;;;;;;5057418;28;20394;-73
2022/09/26 05:41:01;;;;;;;0.10;0.10;;;;;;;;;;5046761;28;20239;-72
2022/09/26 05:43:28;;;;;;;0.10;0.10;;;;;;;;;;5058741;28;20424;-73
2022/09/26 05:45:57;;;;;;;0.10;0.10;;;;;;;;;;5045156;28;20246;-73
2022/09/26 05:48:23;;;;;;;0.10;0.10;;;;;;;;;;5060134;28;20297;-73
2022/09/26 05:50:50;;;;;;;0.10;0.10;;;;;;;;;;5043612;28;20246;-73
2022/09/26 05:53:18;;;;;;;0.10;0.10;;;;;;;;;;5061926;28;20207;-73
2022/09/26 05:55:48;;;;;;;0.10;0.10;;;;;;;;;;5042470;28;20343;-72
2022/09/26 05:58:17;;;;;;;0.10;0.10;;;;;;;;;;5062292;28;20296;-73
2022/09/26 06:00:46;;;;;;;0.10;0.10;;;;;;;;;;5041086;28;20240;-72
2022/09/26 06:03:12;;;;;;;0.07;0.07;;;;;;;;;;5063896;28;20204;-72
2022/09/26 06:05:38;;;;;;;0.10;0.10;;;;;;;;;;5040554;28;20601;-72
2022/09/26 06:08:05;;;;;;;0.10;0.10;;;;;;;;;;5064933;28;20237;-72
2022/09/26 06:10:32;;;;;;;0.10;0.10;;;;;;;;;;5040250;28;20330;-72
2022/09/26 06:13:00;;;;;;;0.10;0.10;;;;;;;;;;5070648;28;20389;-73
2022/09/26 06:15:28;;;;;;;0.10;0.10;;;;;;;;;;5040874;28;20248;-73
2022/09/26 06:17:59;;;;;;;0.10;0.10;;;;;;;;;;5071064;28;20221;-72
2022/09/26 06:20:25;;;;;;;0.10;0.10;;;;;;;;;;5040540;28;20249;-73
2022/09/26 06:22:54;;;;;;;0.10;0.10;;;;;;;;;;5071605;28;20196;-73
2022/09/26 06:25:21;;;;;;;0.10;0.10;;;;;;;;;;5038934;28;20207;-73
2022/09/26 06:27:47;;;;;;;0.10;0.10;;;;;;;;;;5072858;28;20239;-73
2022/09/26 06:30:15;;;;;;;0.10;0.10;;;;;;;;;;5037412;28;20428;-73
2022/09/26 06:32:45;;;;;;;0.10;0.10;;;;;;;;;;5074066;28;20264;-72
2022/09/26 06:35:11;;;;;;;0.00;0.00;;;;;;;;;;5036484;28;20276;-73
2022/09/26 06:37:38;;;;;;;0.10;0.10;;;;;;;;;;5075307;28;20256;-72
2022/09/26 06:40:07;;;;;;;0.10;0.10;;;;;;;;;;5044901;28;20270;-72
2022/09/26 06:42:36;;;;;;;0.10;0.10;;;;;;;;;;5033683;28;20236;-72
2022/09/26 06:45:03;;;;;;;0.10;0.10;;;;;;;;;;5044751;28;20208;-72
2022/09/26 06:47:30;;;;;;;0.10;0.10;;;;;;;;;;5033209;28;20308;-73
2022/09/26 06:49:57;;;;;;;0.10;0.10;;;;;;;;;;5044718;28;20218;-73
2022/09/26 06:52:24;;;;;;;0.10;0.10;;;;;;;;;;5066800;28;20248;-73
2022/09/26 06:54:50;;;;;;;0.10;0.10;;;;;;;;;;5044953;28;20236;-72
2022/09/26 06:57:17;;;;;;;0.10;0.10;;;;;;;;;;5066608;28;20314;-73
2022/09/26 06:59:43;;;;;;;0.10;0.10;;;;;;;;;;5044518;28;20225;-73
2022/09/26 07:02:09;;;;;;;0.10;0.10;;;;;;;;;;5066537;28;20555;-73
2022/09/26 07:04:36;;;;;;;0.10;0.10;;;;;;;;;;5044610;28;20207;-72
2022/09/26 07:07:03;;;;;;;0.00;0.00;;;;;;;;;;5065625;28;20248;-73
2022/09/26 07:09:30;;;;;;;0.10;0.10;;;;;;;;;;5044537;28;20231;-72
2022/09/26 07:11:56;;;;;;;0.10;0.10;;;;;;;;;;5063602;28;20247;-74
2022/09/26 07:14:22;;;;;;;0.10;0.10;;;;;;;;;;5044272;28;20212;-74
2022/09/26 07:16:49;;;;;;;0.10;0.10;;;;;;;;;;5061649;28;20247;-72
2022/09/26 07:19:16;;;;;;;0.10;0.10;;;;;;;;;;5048615;28;20229;-73
2022/09/26 07:21:42;;;;;;;0.10;0.10;;;;;;;;;;5058749;28;20266;-74
2022/09/26 07:24:12;;;;;;;0.10;0.10;;;;;;;;;;5050258;28;20548;-74
2022/09/26 07:26:39;;;;;;;0.10;0.10;;;;;;;;;;5058782;28;20304;-73
2022/09/26 07:29:05;;;;;;;0.00;0.00;;;;;;;;;;5050836;28;20229;-73
2022/09/26 07:31:32;;;;;;;0.10;0.10;;;;;;;;;;5056660;28;20622;-74
2022/09/26 07:33:58;;;;;;;0.10;0.10;;;;;;;;;;5052703;28;20437;-73
2022/09/26 07:36:25;;;;;;;0.03;0.03;;;;;;;;;;5054454;28;20460;-72
2022/09/26 07:38:52;;;;;;;0.00;0.00;;;;;;;;;;5054318;28;20206;-72
2022/09/26 07:41:19;;;;;;;0.10;0.10;;;;;;;;;;5052956;28;20522;-73
2022/09/26 07:43:46;;;;;;;0.10;0.10;;;;;;;;;;5055962;28;20203;-72
2022/09/26 07:51:40;;;;;;;0.10;0.10;;;;;;;;;;5058634;28;20272;-74
2022/09/26 07:54:07;;;;;;;0.00;0.00;;;;;;;;;;5050098;28;20204;-72
2022/09/26 07:56:34;;;;;;;0.10;0.10;;;;;;;;;;5056797;28;20418;-73
2022/09/26 07:59:04;;;;;;;0.10;0.10;;;;;;;;;;5051360;28;20293;-73
2022/09/26 08:01:31;;;;;;;0.10;0.10;;;;;;;;;;5055434;28;20241;-73
2022/09/26 08:03:57;;;;;;;0.10;0.10;;;;;;;;;;5052354;28;20471;-73
2022/09/26 08:06:24;;;;;;;0.10;0.10;;;;;;;;;;5053946;28;20243;-73
2022/09/26 08:08:52;;;;;;;0.10;0.10;;;;;;;;;;5054166;28;20226;-73
2022/09/26 08:11:19;;;;;;;0.10;0.10;;;;;;;;;;5052521;28;20458;-72
2022/09/26 08:13:48;;;;;;;0.10;0.10;;;;;;;;;;5054841;28;20207;-72
2022/09/26 08:16:18;;;;;;;0.10;0.10;;;;;;;;;;5051466;28;20243;-72
2022/09/26 08:18:44;;;;;;;0.10;0.10;;;;;;;;;;5055097;28;20192;-74
2022/09/26 08:21:11;;;;;;;0.10;0.10;;;;;;;;;;5050287;28;20262;-74
2022/09/26 08:23:37;;;;;;;0.10;0.10;;;;;;;;;;5057035;28;20237;-71
2022/09/26 08:26:04;;;;;;;0.10;0.10;;;;;;;;;;5048653;28;20419;-71
2022/09/26 08:28:30;;;;;;;0.10;0.10;;;;;;;;;;5059131;28;20282;-72
2022/09/26 08:30:59;;;;;;;0.10;0.10;;;;;;;;;;5046349;28;20239;-73
2022/09/26 08:33:25;;;;;;;0.10;0.10;;;;;;;;;;5060100;28;20204;-71
2022/09/26 08:35:54;;;;;;;0.10;0.10;;;;;;;;;;5045033;28;20246;-71
2022/09/26 08:38:21;;;;;;;0.10;0.10;;;;;;;;;;5060917;28;20264;-73
2022/09/26 08:40:53;;;;;;;0.10;0.10;;;;;;;;;;5044011;28;20312;-73
2022/09/26 08:43:29;;;;;;;0.00;0.00;;;;;;;;;;5061414;28;20498;-71
2022/09/26 08:48:53;;;;;;;0.10;0.10;;;;;;;;;;5054538;28;20227;-72
2022/09/26 08:51:24;;;;;;;0.10;0.10;;;;;;;;;;5052179;28;20239;-72
2022/09/26 08:53:53;;;;;;;0.10;0.10;;;;;;;;;;5053201;28;20358;-71
2022/09/26 08:56:23;;;;;;;0.10;0.10;;;;;;;;;;5052197;28;20391;-70
2022/09/26 08:58:51;;;;;;;0.10;0.10;;;;;;;;;;5053741;28;20221;-70
2022/09/26 09:01:21;;;;;;;0.10;0.10;;;;;;;;;;5051484;28;20308;-70
2022/09/26 09:03:51;;;;;;;0.00;0.00;;;;;;;;;;5054109;28;20193;-69
2022/09/26 09:06:19;;;;;;;0.10;0.10;;;;;;;;;;5051644;28;20266;-68
2022/09/26 09:08:48;;;;;;;0.10;0.10;;;;;;;;;;5054421;28;20274;-68
2022/09/26 09:11:21;;;;;;;0.10;0.10;;;;;;;;;;5050796;28;20411;-69
2022/09/26 09:14:05;;;;;;;0.10;0.10;;;;;;;;;;5053862;28;20426;-69
2022/09/26 09:16:36;;;;;;;0.03;0.03;;;;;;;;;;5055083;28;20243;-70
2022/09/26 09:19:09;;;;;;;0.10;0.10;;;;;;;;;;5049409;28;20261;-70
2022/09/26 09:21:39;;;;;;;0.10;0.10;;;;;;;;;;5055839;28;20249;-69
2022/09/26 09:24:14;;;;;;;0.10;0.10;;;;;;;;;;5048732;28;20209;-70
2022/09/26 09:26:46;;;;;;;0.10;0.10;;;;;;;;;;5057295;28;20300;-69
2022/09/26 09:29:23;;;;;;;0.08;0.08;;;;;;;;;;5047290;28;20213;-69
2022/09/26 09:31:50;;;;;;;0.10;0.10;;;;;;;;;;5059432;28;20417;-69
2022/09/26 09:34:21;;;;;;;0.10;0.10;;;;;;;;;;5046223;28;20206;-68
2022/09/26 09:36:48;;;;;;;0.10;0.10;;;;;;;;;;5059288;28;20332;-69
2022/09/26 09:39:21;;;;;;;0.10;0.10;;;;;;;;;;5046100;28;20211;-69
2022/09/26 09:41:50;;;;;;;0.10;0.10;;;;;;;;;;5059003;28;20246;-69
2022/09/26 09:44:27;;;;;;;0.10;0.10;;;;;;;;;;5046059;28;20506;-69
2022/09/26 09:46:53;;;;;;;0.00;0.00;;;;;;;;;;5064442;28;20240;-69
2022/09/26 09:49:22;;;;;;;0.10;0.10;;;;;;;;;;5049715;28;20230;-68
2022/09/26 09:51:54;;;;;;;0.10;0.10;;;;;;;;;;5062657;28;20239;-70
2022/09/26 09:54:35;;;;;;;0.10;0.10;;;;;;;;;;5049111;28;20260;-70
2022/09/26 09:57:16;;;;;;;0.10;0.10;;;;;;;;;;5066761;28;20239;-70
2022/09/26 10:00:00;;;;;;;0.00;0.00;;;;;;;;;;5046159;28;20223;-70
2022/09/26 10:02:31;;;;;;;0.10;0.10;;;;;;;;;;5068006;28;20266;-70
2022/09/26 10:05:05;;;;;;;0.00;0.00;;;;;;;;;;5046055;28;20195;-70
2022/09/26 10:07:31;;;;;;;0.00;0.00;;;;;;;;;;5034525;28;20212;-71
2022/09/26 10:09:57;;;;;;;0.10;0.10;;;;;;;;;;5045898;28;20237;-69
2022/09/26 10:12:29;;;;;;;0.10;0.10;;;;;;;;;;5067724;28;20445;-69
2022/09/26 10:14:56;;;;;;;0.10;0.10;;;;;;;;;;5045523;28;20240;-70
2022/09/26 10:17:23;;;;;;;0.10;0.10;;;;;;;;;;5067682;28;20242;-68
2022/09/26 10:19:49;;;;;;;0.10;0.10;;;;;;;;;;5045592;28;20531;-69
2022/09/26 10:22:24;;;;;;;0.10;0.10;;;;;;;;;;5067592;28;20260;-70
2022/09/26 10:24:51;;;;;;;0.10;0.10;;;;;;;;;;5045542;28;20277;-69
2022/09/26 10:27:21;;;;;;;0.10;0.10;;;;;;;;;;5067467;28;20255;-69
2022/09/26 10:29:55;;;;;;;0.10;0.10;;;;;;;;;;5045158;28;20435;-69
2022/09/26 10:32:21;;;;;;;0.00;0.00;;;;;;;;;;5067453;28;20248;-70
2022/09/26 10:35:02;;;;;;;0.10;0.10;;;;;;;;;;5045434;28;20210;-70
2022/09/26 10:37:30;;;;;;;0.00;0.00;;;;;;;;;;5067150;28;20522;-70
2022/09/26 10:42:45;;;;;;;0.05;0.05;;;;;;;;;;5045274;28;20303;-69
2022/09/26 10:45:14;;;;;;;0.10;0.10;;;;;;;;;;5036538;28;20280;-70
2022/09/26 10:47:44;;;;;;;0.10;0.10;;;;;;;;;;5074204;28;20361;-69
2022/09/26 10:50:13;;;;;;;0.10;0.10;;;;;;;;;;5035706;28;20312;-69
2022/09/26 10:52:44;;;;;;;0.10;0.10;;;;;;;;;;5074932;28;20415;-70
2022/09/26 10:55:13;;;;;;;0.05;0.05;;;;;;;;;;5035890;28;20194;-69
2022/09/26 10:57:44;;;;;;;0.10;0.10;;;;;;;;;;5073093;28;20213;-69
2022/09/26 11:00:15;;;;;;;0.10;0.10;;;;;;;;;;5035611;28;20266;-70
2022/09/26 11:02:45;;;;;;;0.10;0.10;;;;;;;;;;5073392;28;20218;-69
2022/09/26 11:07:57;;;;;;;0.10;0.10;;;;;;;;;;5069945;28;20193;-69
2022/09/26 11:10:24;;;;;;;0.10;0.10;;;;;;;;;;5038845;28;20226;-68
2022/09/26 11:12:58;;;;;;;0.10;0.10;;;;;;;;;;5071358;28;20207;-72
2022/09/26 11:15:25;;;;;;;0.10;0.10;;;;;;;;;;5039592;28;20505;-72
2022/09/26 11:17:51;;;;;;;0.10;0.10;;;;;;;;;;5071051;28;20201;-72
2022/09/26 11:20:24;;;;;;;0.10;0.10;;;;;;;;;;5037191;28;20201;-71
2022/09/26 11:22:54;;;;;;;0.00;0.00;;;;;;;;;;5071031;28;20208;-71
2022/09/26 11:25:24;;;;;;;0.10;0.10;;;;;;;;;;5038053;28;20258;-71
2022/09/26 11:27:53;;;;;;;0.10;0.10;;;;;;;;;;5071342;28;20197;-72
2022/09/26 11:30:20;;;;;;;0.10;0.10;;;;;;;;;;5037234;28;20228;-72
2022/09/26 11:32:48;;;;;;;0.10;0.10;;;;;;;;;;5072515;28;20193;-71
2022/09/26 11:35:16;;;;;;;0.10;0.10;;;;;;;;;;5036314;28;20212;-72
2022/09/26 11:38:04;;;;;;;0.10;0.10;;;;;;;;;;5072704;28;20277;-72
2022/09/26 11:40:40;;;;;;;0.10;0.10;;;;;;;;;;5040189;28;20236;-71
2022/09/26 11:43:18;;;;;;;0.10;0.10;;;;;;;;;;5066469;28;20193;-72
2022/09/26 11:45:57;;;;;;;0.10;0.10;;;;;;;;;;5043955;28;20624;-72
2022/09/26 11:48:42;;;;;;;0.10;0.10;;;;;;;;;;5061431;28;20208;-72
2022/09/26 11:51:14;;;;;;;0.10;0.10;;;;;;;;;;5049531;28;20251;-71
2022/09/26 11:53:53;;;;;;;0.10;0.10;;;;;;;;;;5057326;28;20277;-73
2022/09/26 11:56:31;;;;;;;0.10;0.10;;;;;;;;;;5052869;28;20254;-71
2022/09/26 11:59:03;;;;;;;0.10;0.10;;;;;;;;;;5052799;28;20226;-71
2022/09/26 12:01:37;;;;;;;0.03;0.03;;;;;;;;;;5054577;28;20283;-72
2022/09/26 12:04:25;;;;;;;0.10;0.10;;;;;;;;;;5051860;28;20193;-71
2022/09/26 12:06:54;;;;;;;0.10;0.10;;;;;;;;;;5055439;28;20246;-72
2022/09/26 12:09:26;;;;;;;0.00;0.00;;;;;;;;;;5045562;28;20504;-71
2022/09/26 12:11:59;;;;;;;0.00;0.00;;;;;;;;;;5061663;28;20239;-71
2022/09/26 12:14:33;;;;;;;0.08;0.08;;;;;;;;;;5045253;28;20194;-72
2022/09/26 12:17:03;;;;;;;0.00;0.00;;;;;;;;;;5063392;28;20245;-72
2022/09/26 12:19:32;;;;;;;0.10;0.10;;;;;;;;;;5043821;28;20398;-72
2022/09/26 12:24:50;;;;;;;0.10;0.10;;;;;;;;;;5042881;28;20271;-72
2022/09/26 12:27:24;;;;;;;0.10;0.10;;;;;;;;;;5064791;28;20247;-71
2022/09/26 12:29:53;;;;;;;0.10;0.10;;;;;;;;;;5042704;28;20285;-72
2022/09/26 12:32:26;;;;;;;0.10;0.10;;;;;;;;;;5064827;28;20356;-72
2022/09/26 12:35:06;;;;;;;0.00;0.00;;;;;;;;;;5042793;28;20194;-72
2022/09/26 12:37:57;;;;;;;0.10;0.10;;;;;;;;;;5031601;28;20501;-73
2022/09/26 12:40:30;;;;;;;0.05;0.05;;;;;;;;;;5037425;28;20378;-72
2022/09/26 12:43:12;;;;;;;0.08;0.08;;;;;;;;;;5067794;28;20513;-72
2022/09/26 12:45:52;;;;;;;0.10;0.10;;;;;;;;;;5041716;28;20475;-72
2022/09/26 12:48:31;;;;;;;0.10;0.10;;;;;;;;;;5061946;28;20221;-73
2022/09/26 12:51:01;;;;;;;0.00;0.00;;;;;;;;;;5046237;28;20239;-73
2022/09/26 12:53:36;;;;;;;0.00;0.00;;;;;;;;;;5059637;28;20401;-72
2022/09/26 12:56:05;;;;;;;0.10;0.10;;;;;;;;;;5048049;28;20246;-74
2022/09/26 12:58:38;;;;;;;0.00;0.00;;;;;;;;;;5058060;28;20239;-72
2022/09/26 13:01:07;;;;;;;0.00;0.00;;;;;;;;;;5047725;28;20298;-71
2022/09/26 13:03:55;;;;;;;0.08;0.08;;;;;;;;;;5058233;28;20604;-72
2022/09/26 13:06:39;;;;;;;0.10;0.10;;;;;;;;;;5046541;28;20266;-73
2022/09/26 13:09:14;;;;;;;0.10;0.10;;;;;;;;;;5048659;28;20212;-72
2022/09/26 13:11:44;;;;;;;0.10;0.10;;;;;;;;;;5057659;28;20239;-72
2022/09/26 13:14:22;;;;;;;0.10;0.10;;;;;;;;;;5047579;28;20205;-72
2022/09/26 13:16:53;;;;;;;0.10;0.10;;;;;;;;;;5059686;28;20239;-72
2022/09/26 13:19:22;;;;;;;0.10;0.10;;;;;;;;;;5045801;28;20196;-72
2022/09/26 13:21:53;;;;;;;0.00;0.00;;;;;;;;;;5063775;28;20248;-72
2022/09/26 13:24:22;;;;;;;0.10;0.10;;;;;;;;;;5049338;28;20206;-73
2022/09/26 13:26:50;;;;;;;0.10;0.10;;;;;;;;;;5063593;28;20239;-72
2022/09/26 13:29:20;;;;;;;0.03;0.03;;;;;;;;;;5050237;28;20448;-72
2022/09/26 13:31:54;;;;;;;0.00;0.00;;;;;;;;;;5063132;28;20319;-71
2022/09/26 13:34:24;;;;;;;0.10;0.10;;;;;;;;;;5048978;28;20224;-73
2022/09/26 13:36:51;;;;;;;0.05;0.05;;;;;;;;;;5064091;28;20250;-72
2022/09/26 13:39:19;;;;;;;0.10;0.10;;;;;;;;;;5049903;28;20215;-72
2022/09/26 13:41:48;;;;;;;0.10;0.10;;;;;;;;;;5062452;28;20554;-72
2022/09/26 13:44:22;;;;;;;0.05;0.05;;;;;;;;;;5050356;28;20380;-69
2022/09/26 13:46:58;;;;;;;0.10;0.10;;;;;;;;;;5063413;28;20246;-70
2022/09/26 13:49:30;;;;;;;0.10;0.10;;;;;;;;;;5047726;28;20376;-69
2022/09/26 13:52:02;;;;;;;0.10;0.10;;;;;;;;;;5065326;28;20249;-70
2022/09/26 13:54:30;;;;;;;0.10;0.10;;;;;;;;;;5046462;28;20228;-69
2022/09/26 13:56:57;;;;;;;0.10;0.10;;;;;;;;;;5065293;28;20316;-71
2022/09/26 13:59:33;;;;;;;0.10;0.10;;;;;;;;;;5047763;28;20511;-70
2022/09/26 14:02:22;;;;;;;0.10;0.10;;;;;;;;;;5065902;28;20248;-69
2022/09/26 14:04:48;;;;;;;0.10;0.10;;;;;;;;;;5045551;28;20283;-70
2022/09/26 14:10:07;;;;;;;0.10;0.10;;;;;;;;;;5045440;28;20192;-70
2022/09/26 14:12:49;;;;;;;0.10;0.10;;;;;;;;;;5033996;28;20423;-69
2022/09/26 14:15:22;;;;;;;0.03;0.03;;;;;;;;;;5038393;28;20264;-69
2022/09/26 14:18:04;;;;;;;0.10;0.10;;;;;;;;;;5072700;28;20196;-70
2022/09/26 14:20:33;;;;;;;0.10;0.10;;;;;;;;;;5042014;28;20247;-68
2022/09/26 14:23:00;;;;;;;0.10;0.10;;;;;;;;;;5069291;28;20215;-69
2022/09/26 14:25:46;;;;;;;0.10;0.10;;;;;;;;;;5040637;28;20262;-71
2022/09/26 14:28:20;;;;;;;0.10;0.10;;;;;;;;;;5066174;28;20243;-69
2022/09/26 14:31:01;;;;;;;0.10;0.10;;;;;;;;;;5045678;28;20389;-69
2022/09/26 14:33:29;;;;;;;0.10;0.10;;;;;;;;;;5061255;28;20280;-70
2022/09/26 14:36:10;;;;;;;0.10;0.10;;;;;;;;;;5048260;28;20254;-70
2022/09/26 14:38:38;;;;;;;0.00;0.00;;;;;;;;;;5058674;28;20208;-70
2022/09/26 14:41:05;;;;;;;0.10;0.10;;;;;;;;;;5050949;28;20263;-70
2022/09/26 14:43:32;;;;;;;0.10;0.10;;;;;;;;;;5060623;28;20277;-69
2022/09/26 14:46:01;;;;;;;0.10;0.10;;;;;;;;;;5049052;28;20385;-69
2022/09/26 14:48:35;;;;;;;0.10;0.10;;;;;;;;;;5061399;28;20420;-68
2022/09/26 14:51:03;;;;;;;0.10;0.10;;;;;;;;;;5049654;28;20314;-70
2022/09/26 14:53:33;;;;;;;0.10;0.10;;;;;;;;;;5061079;28;20211;-69
2022/09/26 14:56:02;;;;;;;0.08;0.08;;;;;;;;;;5049029;28;20259;-69
2022/09/26 14:58:33;;;;;;;0.10;0.10;;;;;;;;;;5061675;28;20246;-69
2022/09/26 15:01:02;;;;;;;0.00;0.00;;;;;;;;;;5048864;28;20245;-71
2022/09/26 15:03:28;;;;;;;0.10;0.10;;;;;;;;;;5061610;28;20212;-70
2022/09/26 15:05:58;;;;;;;0.00;0.00;;;;;;;;;;5047759;28;20239;-69
2022/09/26 15:08:26;;;;;;;0.10;0.10;;;;;;;;;;5061912;28;20208;-69
2022/09/26 15:10:54;;;;;;;0.10;0.10;;;;;;;;;;5046452;28;20269;-69
2022/09/26 15:13:23;;;;;;;0.10;0.10;;;;;;;;;;5063286;28;20218;-70
2022/09/26 15:15:52;;;;;;;0.10;0.10;;;;;;;;;;5045855;28;20243;-69
2022/09/26 15:18:24;;;;;;;0.10;0.10;;;;;;;;;;5063722;28;20348;-69
2022/09/26 15:20:53;;;;;;;0.10;0.10;;;;;;;;;;5045890;28;20618;-70